sensor_id;sensor_type;location;lat;lon;timestamp;temperature;humidity
20866;DHT22;10593;48.398;10.698;2023-07-13T00:00:33;24.40;59.20
20866;DHT22;10593;48.398;10.698;2023-07-13T00:02:59;24.40;59.20
20866;DHT22;10593;48.398;10.698;2023-07-13T00:05:25;24.30;59.20
20866;DHT22;10593;48.398;10.698;2023-07-13T00:07:51;24.40;59.30
20866;DHT22;10593;48.398;10.698;2023-07-13T00:10:17;24.40;59.30
20866;DHT22;10593;48.398;10.698;2023-07-13T00:12:44;24.30;59.20
20866;DHT22;10593;48.398;10.698;2023-07-13T00:17:43;24.30;59.40
20866;DHT22;10593;48.398;10.698;2023-07-13T00:20:11;24.30;59.30
20866;DHT22;10593;48.398;10.698;2023-07-13T00:22:37;24.30;59.30
20866;DHT22;10593;48.398;10.698;2023-07-13T00:25:03;24.30;59.30
20866;DHT22;10593;48.398;10.698;2023-07-13T00:27:29;24.30;59.30
20866;DHT22;10593;48.398;10.698;2023-07-13T00:29:57;24.30;59.40
20866;DHT22;10593;48.398;10.698;2023-07-13T00:32:24;24.30;59.50
20866;DHT22;10593;48.398;10.698;2023-07-13T00:34:51;24.30;59.50
20866;DHT22;10593;48.398;10.698;2023-07-13T00:37:17;24.20;59.40
20866;DHT22;10593;48.398;10.698;2023-07-13T00:39:43;24.30;59.50
20866;DHT22;10593;48.398;10.698;2023-07-13T00:42:09;24.20;59.50
20866;DHT22;10593;48.398;10.698;2023-07-13T00:44:36;24.30;59.60
20866;DHT22;10593;48.398;10.698;2023-07-13T00:47:02;24.20;59.60
20866;DHT22;10593;48.398;10.698;2023-07-13T00:49:30;24.20;59.60
20866;DHT22;10593;48.398;10.698;2023-07-13T00:52:00;24.20;59.60
20866;DHT22;10593;48.398;10.698;2023-07-13T00:54:32;24.20;59.80
20866;DHT22;10593;48.398;10.698;2023-07-13T00:57:02;24.20;59.80
20866;DHT22;10593;48.398;10.698;2023-07-13T00:59:31;24.20;59.80
20866;DHT22;10593;48.398;10.698;2023-07-13T01:01:58;24.20;59.80
20866;DHT22;10593;48.398;10.698;2023-07-13T01:04:25;24.20;59.80
20866;DHT22;10593;48.398;10.698;2023-07-13T01:06:51;24.20;59.80
20866;DHT22;10593;48.398;10.698;2023-07-13T01:09:18;24.20;59.80
20866;DHT22;10593;48.398;10.698;2023-07-13T01:11:45;24.20;59.80
20866;DHT22;10593;48.398;10.698;2023-07-13T01:14:11;24.20;59.80
20866;DHT22;10593;48.398;10.698;2023-07-13T01:16:38;24.20;59.80
20866;DHT22;10593;48.398;10.698;2023-07-13T01:22:10;24.20;59.90
20866;DHT22;10593;48.398;10.698;2023-07-13T01:24:40;24.20;59.80
20866;DHT22;10593;48.398;10.698;2023-07-13T01:27:10;24.20;59.90
20866;DHT22;10593;48.398;10.698;2023-07-13T01:29:39;24.20;60.10
20866;DHT22;10593;48.398;10.698;2023-07-13T01:32:11;24.10;60.10
20866;DHT22;10593;48.398;10.698;2023-07-13T01:34:39;24.10;60.20
20866;DHT22;10593;48.398;10.698;2023-07-13T01:37:08;24.10;60.10
20866;DHT22;10593;48.398;10.698;2023-07-13T01:39:35;24.10;60.30
20866;DHT22;10593;48.398;10.698;2023-07-13T01:42:01;24.10;60.40
20866;DHT22;10593;48.398;10.698;2023-07-13T01:44:27;24.10;60.50
20866;DHT22;10593;48.398;10.698;2023-07-13T01:46:53;24.10;60.60
20866;DHT22;10593;48.398;10.698;2023-07-13T01:49:19;24.10;60.60
20866;DHT22;10593;48.398;10.698;2023-07-13T01:51:44;24.10;60.60
20866;DHT22;10593;48.398;10.698;2023-07-13T01:54:10;24.10;60.70
20866;DHT22;10593;48.398;10.698;2023-07-13T01:56:36;24.10;60.70
20866;DHT22;10593;48.398;10.698;2023-07-13T01:59:01;24.10;60.80
20866;DHT22;10593;48.398;10.698;2023-07-13T02:01:27;24.10;60.80
20866;DHT22;10593;48.398;10.698;2023-07-13T02:03:52;24.10;60.80
20866;DHT22;10593;48.398;10.698;2023-07-13T02:06:18;24.00;60.60
20866;DHT22;10593;48.398;10.698;2023-07-13T02:08:44;24.00;60.60
20866;DHT22;10593;48.398;10.698;2023-07-13T02:11:09;24.10;60.60
20866;DHT22;10593;48.398;10.698;2023-07-13T02:13:35;24.00;60.50
20866;DHT22;10593;48.398;10.698;2023-07-13T02:16:01;24.00;60.60
20866;DHT22;10593;48.398;10.698;2023-07-13T02:18:26;24.00;60.60
20866;DHT22;10593;48.398;10.698;2023-07-13T02:20:52;24.00;60.70
20866;DHT22;10593;48.398;10.698;2023-07-13T02:23:18;24.00;60.80
20866;DHT22;10593;48.398;10.698;2023-07-13T02:25:45;24.00;60.70
20866;DHT22;10593;48.398;10.698;2023-07-13T02:28:11;24.00;60.80
20866;DHT22;10593;48.398;10.698;2023-07-13T02:30:37;24.00;60.70
20866;DHT22;10593;48.398;10.698;2023-07-13T02:33:04;24.00;60.60
20866;DHT22;10593;48.398;10.698;2023-07-13T02:35:30;24.00;60.70
20866;DHT22;10593;48.398;10.698;2023-07-13T02:37:56;24.00;60.80
20866;DHT22;10593;48.398;10.698;2023-07-13T02:40:22;23.90;60.60
20866;DHT22;10593;48.398;10.698;2023-07-13T02:42:48;24.00;60.70
20866;DHT22;10593;48.398;10.698;2023-07-13T02:45:13;23.90;60.60
20866;DHT22;10593;48.398;10.698;2023-07-13T02:47:41;23.90;60.50
20866;DHT22;10593;48.398;10.698;2023-07-13T02:50:07;23.90;60.50
20866;DHT22;10593;48.398;10.698;2023-07-13T02:52:34;23.90;60.60
20866;DHT22;10593;48.398;10.698;2023-07-13T02:55:00;23.90;60.60
20866;DHT22;10593;48.398;10.698;2023-07-13T02:57:25;23.90;60.60
20866;DHT22;10593;48.398;10.698;2023-07-13T02:59:53;23.90;60.60
20866;DHT22;10593;48.398;10.698;2023-07-13T03:02:20;23.90;60.50
20866;DHT22;10593;48.398;10.698;2023-07-13T03:04:45;23.90;60.40
20866;DHT22;10593;48.398;10.698;2023-07-13T03:07:11;23.90;60.40
20866;DHT22;10593;48.398;10.698;2023-07-13T03:09:37;23.90;60.30
20866;DHT22;10593;48.398;10.698;2023-07-13T03:12:03;23.90;60.40
20866;DHT22;10593;48.398;10.698;2023-07-13T03:14:29;23.90;60.40
20866;DHT22;10593;48.398;10.698;2023-07-13T03:16:55;23.80;60.30
20866;DHT22;10593;48.398;10.698;2023-07-13T03:19:21;23.90;60.40
20866;DHT22;10593;48.398;10.698;2023-07-13T03:21:46;23.80;60.20
20866;DHT22;10593;48.398;10.698;2023-07-13T03:24:12;23.90;60.20
20866;DHT22;10593;48.398;10.698;2023-07-13T03:26:38;23.80;60.10
20866;DHT22;10593;48.398;10.698;2023-07-13T03:29:03;23.80;60.10
20866;DHT22;10593;48.398;10.698;2023-07-13T03:31:32;23.80;59.90
20866;DHT22;10593;48.398;10.698;2023-07-13T03:34:00;23.80;59.90
20866;DHT22;10593;48.398;10.698;2023-07-13T03:36:28;23.80;59.90
20866;DHT22;10593;48.398;10.698;2023-07-13T03:39:00;23.80;59.90
20866;DHT22;10593;48.398;10.698;2023-07-13T03:41:27;23.80;60.00
20866;DHT22;10593;48.398;10.698;2023-07-13T03:43:53;23.80;59.90
20866;DHT22;10593;48.398;10.698;2023-07-13T03:46:18;23.70;59.80
20866;DHT22;10593;48.398;10.698;2023-07-13T03:48:46;23.70;59.80
20866;DHT22;10593;48.398;10.698;2023-07-13T03:51:14;23.70;59.90
20866;DHT22;10593;48.398;10.698;2023-07-13T03:53:42;23.70;59.90
20866;DHT22;10593;48.398;10.698;2023-07-13T03:56:10;23.70;59.80
20866;DHT22;10593;48.398;10.698;2023-07-13T03:58:39;23.70;59.80
20866;DHT22;10593;48.398;10.698;2023-07-13T04:01:07;23.70;59.80
20866;DHT22;10593;48.398;10.698;2023-07-13T04:03:35;23.70;59.80
20866;DHT22;10593;48.398;10.698;2023-07-13T04:06:03;23.70;59.80
20866;DHT22;10593;48.398;10.698;2023-07-13T04:08:34;23.60;59.70
20866;DHT22;10593;48.398;10.698;2023-07-13T04:11:03;23.60;59.70
20866;DHT22;10593;48.398;10.698;2023-07-13T04:13:30;23.60;59.70
20866;DHT22;10593;48.398;10.698;2023-07-13T04:15:55;23.60;59.60
20866;DHT22;10593;48.398;10.698;2023-07-13T04:18:21;23.60;59.60
20866;DHT22;10593;48.398;10.698;2023-07-13T04:20:48;23.60;59.40
20866;DHT22;10593;48.398;10.698;2023-07-13T04:23:16;23.60;59.30
20866;DHT22;10593;48.398;10.698;2023-07-13T04:25:46;23.60;59.80
20866;DHT22;10593;48.398;10.698;2023-07-13T04:28:14;23.60;59.30
20866;DHT22;10593;48.398;10.698;2023-07-13T04:30:41;23.60;59.30
20866;DHT22;10593;48.398;10.698;2023-07-13T04:33:07;23.50;59.20
20866;DHT22;10593;48.398;10.698;2023-07-13T04:35:34;23.50;59.20
20866;DHT22;10593;48.398;10.698;2023-07-13T04:38:00;23.50;59.20
20866;DHT22;10593;48.398;10.698;2023-07-13T04:40:27;23.60;59.20
20866;DHT22;10593;48.398;10.698;2023-07-13T04:42:53;23.50;59.00
20866;DHT22;10593;48.398;10.698;2023-07-13T04:45:19;23.50;59.00
20866;DHT22;10593;48.398;10.698;2023-07-13T04:47:44;23.50;59.00
20866;DHT22;10593;48.398;10.698;2023-07-13T04:50:13;23.50;59.00
20866;DHT22;10593;48.398;10.698;2023-07-13T04:52:43;23.50;59.00
20866;DHT22;10593;48.398;10.698;2023-07-13T04:55:10;23.50;59.00
20866;DHT22;10593;48.398;10.698;2023-07-13T04:57:36;23.50;59.00
20866;DHT22;10593;48.398;10.698;2023-07-13T05:00:03;23.50;59.00
20866;DHT22;10593;48.398;10.698;2023-07-13T05:02:31;23.50;59.10
20866;DHT22;10593;48.398;10.698;2023-07-13T05:04:58;23.50;59.10
20866;DHT22;10593;48.398;10.698;2023-07-13T05:07:25;23.50;59.00
20866;DHT22;10593;48.398;10.698;2023-07-13T05:09:51;23.40;58.80
20866;DHT22;10593;48.398;10.698;2023-07-13T05:12:18;23.50;58.90
20866;DHT22;10593;48.398;10.698;2023-07-13T05:14:44;23.50;58.90
20866;DHT22;10593;48.398;10.698;2023-07-13T05:17:10;23.50;58.90
20866;DHT22;10593;48.398;10.698;2023-07-13T05:19:36;23.50;59.00
20866;DHT22;10593;48.398;10.698;2023-07-13T05:22:02;23.50;59.10
20866;DHT22;10593;48.398;10.698;2023-07-13T05:24:29;23.50;59.10
20866;DHT22;10593;48.398;10.698;2023-07-13T05:26:55;23.50;59.00
20866;DHT22;10593;48.398;10.698;2023-07-13T05:29:21;23.40;58.80
20866;DHT22;10593;48.398;10.698;2023-07-13T05:31:48;23.50;58.70
20866;DHT22;10593;48.398;10.698;2023-07-13T05:34:14;23.40;58.60
20866;DHT22;10593;48.398;10.698;2023-07-13T05:36:40;23.50;58.70
20866;DHT22;10593;48.398;10.698;2023-07-13T05:39:06;23.50;58.80
20866;DHT22;10593;48.398;10.698;2023-07-13T05:41:32;23.40;58.70
20866;DHT22;10593;48.398;10.698;2023-07-13T05:43:57;23.50;58.80
20866;DHT22;10593;48.398;10.698;2023-07-13T05:46:23;23.50;58.80
20866;DHT22;10593;48.398;10.698;2023-07-13T05:48:49;23.40;58.80
20866;DHT22;10593;48.398;10.698;2023-07-13T05:51:15;23.40;58.40
20866;DHT22;10593;48.398;10.698;2023-07-13T05:53:40;23.40;58.20
20866;DHT22;10593;48.398;10.698;2023-07-13T05:56:06;23.40;57.90
20866;DHT22;10593;48.398;10.698;2023-07-13T05:58:32;23.40;57.70
20866;DHT22;10593;48.398;10.698;2023-07-13T06:01:12;23.40;57.60
20866;DHT22;10593;48.398;10.698;2023-07-13T06:03:39;23.40;57.40
20866;DHT22;10593;48.398;10.698;2023-07-13T06:06:06;23.40;57.40
20866;DHT22;10593;48.398;10.698;2023-07-13T06:08:34;23.30;57.40
20866;DHT22;10593;48.398;10.698;2023-07-13T06:11:05;23.30;57.70
20866;DHT22;10593;48.398;10.698;2023-07-13T06:13:32;23.30;57.80
20866;DHT22;10593;48.398;10.698;2023-07-13T06:15:59;23.30;57.80
20866;DHT22;10593;48.398;10.698;2023-07-13T06:18:25;23.20;57.70
20866;DHT22;10593;48.398;10.698;2023-07-13T06:20:51;23.20;57.60
20866;DHT22;10593;48.398;10.698;2023-07-13T06:23:16;23.20;57.60
20866;DHT22;10593;48.398;10.698;2023-07-13T06:25:43;23.20;57.60
20866;DHT22;10593;48.398;10.698;2023-07-13T06:28:08;23.20;57.70
20866;DHT22;10593;48.398;10.698;2023-07-13T06:30:34;23.10;57.70
20866;DHT22;10593;48.398;10.698;2023-07-13T06:33:00;23.10;57.60
20866;DHT22;10593;48.398;10.698;2023-07-13T06:35:25;23.20;57.80
20866;DHT22;10593;48.398;10.698;2023-07-13T06:37:51;23.20;57.70
20866;DHT22;10593;48.398;10.698;2023-07-13T06:40:17;23.10;57.60
20866;DHT22;10593;48.398;10.698;2023-07-13T06:42:42;23.10;57.40
20866;DHT22;10593;48.398;10.698;2023-07-13T06:45:08;23.10;57.30
20866;DHT22;10593;48.398;10.698;2023-07-13T06:47:34;23.10;57.20
20866;DHT22;10593;48.398;10.698;2023-07-13T06:50:00;23.10;57.20
20866;DHT22;10593;48.398;10.698;2023-07-13T06:52:26;23.10;57.20
20866;DHT22;10593;48.398;10.698;2023-07-13T06:54:52;23.00;57.00
20866;DHT22;10593;48.398;10.698;2023-07-13T06:57:17;23.00;56.90
20866;DHT22;10593;48.398;10.698;2023-07-13T06:59:43;23.00;57.00
20866;DHT22;10593;48.398;10.698;2023-07-13T07:02:10;23.00;57.70
20866;DHT22;10593;48.398;10.698;2023-07-13T07:04:36;23.00;57.10
20866;DHT22;10593;48.398;10.698;2023-07-13T07:07:02;23.10;57.10
20866;DHT22;10593;48.398;10.698;2023-07-13T07:09:28;23.10;56.80
20866;DHT22;10593;48.398;10.698;2023-07-13T07:11:55;23.00;56.50
20866;DHT22;10593;48.398;10.698;2023-07-13T07:14:21;23.10;56.50
20866;DHT22;10593;48.398;10.698;2023-07-13T07:16:46;23.10;56.50
20866;DHT22;10593;48.398;10.698;2023-07-13T07:19:12;23.10;56.60
20866;DHT22;10593;48.398;10.698;2023-07-13T07:21:38;23.20;56.20
20866;DHT22;10593;48.398;10.698;2023-07-13T07:24:04;23.10;55.50
20866;DHT22;10593;48.398;10.698;2023-07-13T07:26:31;23.20;55.50
20866;DHT22;10593;48.398;10.698;2023-07-13T07:28:56;23.30;55.30
20866;DHT22;10593;48.398;10.698;2023-07-13T07:31:22;23.20;54.60
20866;DHT22;10593;48.398;10.698;2023-07-13T07:33:48;23.20;53.90
20866;DHT22;10593;48.398;10.698;2023-07-13T07:36:15;23.30;54.00
20866;DHT22;10593;48.398;10.698;2023-07-13T07:38:42;23.30;53.90
20866;DHT22;10593;48.398;10.698;2023-07-13T07:41:08;23.30;53.90
20866;DHT22;10593;48.398;10.698;2023-07-13T07:43:34;23.30;53.70
20866;DHT22;10593;48.398;10.698;2023-07-13T07:46:00;23.30;53.40
20866;DHT22;10593;48.398;10.698;2023-07-13T07:48:25;23.30;52.70
20866;DHT22;10593;48.398;10.698;2023-07-13T07:50:51;23.30;52.20
20866;DHT22;10593;48.398;10.698;2023-07-13T07:53:17;23.30;52.30
20866;DHT22;10593;48.398;10.698;2023-07-13T07:55:42;23.40;53.00
20866;DHT22;10593;48.398;10.698;2023-07-13T07:58:08;23.30;52.90
20866;DHT22;10593;48.398;10.698;2023-07-13T08:00:34;23.30;52.60
20866;DHT22;10593;48.398;10.698;2023-07-13T08:03:01;23.30;52.40
20866;DHT22;10593;48.398;10.698;2023-07-13T08:05:27;23.40;51.90
20866;DHT22;10593;48.398;10.698;2023-07-13T08:07:53;23.40;51.60
20866;DHT22;10593;48.398;10.698;2023-07-13T08:10:20;23.40;51.50
20866;DHT22;10593;48.398;10.698;2023-07-13T08:12:45;23.40;51.50
20866;DHT22;10593;48.398;10.698;2023-07-13T08:15:13;23.30;51.90
20866;DHT22;10593;48.398;10.698;2023-07-13T08:17:41;23.40;52.00
20866;DHT22;10593;48.398;10.698;2023-07-13T08:20:07;23.30;51.80
20866;DHT22;10593;48.398;10.698;2023-07-13T08:22:36;23.40;52.20
20866;DHT22;10593;48.398;10.698;2023-07-13T08:25:02;23.40;52.30
20866;DHT22;10593;48.398;10.698;2023-07-13T08:27:28;23.40;52.60
20866;DHT22;10593;48.398;10.698;2023-07-13T08:29:54;23.40;52.30
20866;DHT22;10593;48.398;10.698;2023-07-13T08:32:21;23.40;51.60
20866;DHT22;10593;48.398;10.698;2023-07-13T08:34:48;23.40;51.30
20866;DHT22;10593;48.398;10.698;2023-07-13T08:37:14;23.40;51.30
20866;DHT22;10593;48.398;10.698;2023-07-13T08:39:41;23.40;51.00
20866;DHT22;10593;48.398;10.698;2023-07-13T08:42:33;23.50;50.90
20866;DHT22;10593;48.398;10.698;2023-07-13T08:45:28;23.50;50.30
20866;DHT22;10593;48.398;10.698;2023-07-13T08:48:05;23.50;50.10
20866;DHT22;10593;48.398;10.698;2023-07-13T08:50:47;23.50;50.30
20866;DHT22;10593;48.398;10.698;2023-07-13T08:53:18;23.50;50.60
20866;DHT22;10593;48.398;10.698;2023-07-13T08:55:45;23.50;50.60
20866;DHT22;10593;48.398;10.698;2023-07-13T08:58:17;23.50;50.90
20866;DHT22;10593;48.398;10.698;2023-07-13T09:00:52;23.50;50.90
20866;DHT22;10593;48.398;10.698;2023-07-13T09:03:37;23.50;51.30
20866;DHT22;10593;48.398;10.698;2023-07-13T09:06:10;23.50;51.50
20866;DHT22;10593;48.398;10.698;2023-07-13T09:08:58;23.50;50.50
20866;DHT22;10593;48.398;10.698;2023-07-13T09:12:09;23.60;49.40
20866;DHT22;10593;48.398;10.698;2023-07-13T09:14:48;23.60;50.00
20866;DHT22;10593;48.398;10.698;2023-07-13T09:17:19;23.60;50.10
20866;DHT22;10593;48.398;10.698;2023-07-13T09:19:58;23.60;50.10
20866;DHT22;10593;48.398;10.698;2023-07-13T09:22:32;23.60;49.60
20866;DHT22;10593;48.398;10.698;2023-07-13T09:25:21;23.70;50.00
20866;DHT22;10593;48.398;10.698;2023-07-13T09:28:00;23.70;49.40
20866;DHT22;10593;48.398;10.698;2023-07-13T09:30:46;23.70;49.20
20866;DHT22;10593;48.398;10.698;2023-07-13T09:33:21;23.70;49.00
20866;DHT22;10593;48.398;10.698;2023-07-13T09:35:48;23.70;49.00
20866;DHT22;10593;48.398;10.698;2023-07-13T09:38:17;23.70;48.80
20866;DHT22;10593;48.398;10.698;2023-07-13T09:41:21;23.70;48.20
20866;DHT22;10593;48.398;10.698;2023-07-13T09:44:12;23.70;48.70
20866;DHT22;10593;48.398;10.698;2023-07-13T09:46:59;23.70;48.90
20866;DHT22;10593;48.398;10.698;2023-07-13T09:49:34;23.70;49.00
20866;DHT22;10593;48.398;10.698;2023-07-13T09:52:04;23.80;48.80
20866;DHT22;10593;48.398;10.698;2023-07-13T09:54:36;23.80;48.90
20866;DHT22;10593;48.398;10.698;2023-07-13T09:57:08;23.80;47.50
20866;DHT22;10593;48.398;10.698;2023-07-13T09:59:41;23.90;47.10
20866;DHT22;10593;48.398;10.698;2023-07-13T10:02:32;23.90;47.40
20866;DHT22;10593;48.398;10.698;2023-07-13T10:05:13;24.00;46.90
20866;DHT22;10593;48.398;10.698;2023-07-13T10:07:44;24.00;46.70
20866;DHT22;10593;48.398;10.698;2023-07-13T10:10:22;24.10;46.20
20866;DHT22;10593;48.398;10.698;2023-07-13T10:12:49;24.10;45.80
20866;DHT22;10593;48.398;10.698;2023-07-13T10:15:19;24.20;45.90
20866;DHT22;10593;48.398;10.698;2023-07-13T10:17:48;24.20;45.20
20866;DHT22;10593;48.398;10.698;2023-07-13T10:20:16;24.20;45.90
20866;DHT22;10593;48.398;10.698;2023-07-13T10:22:48;24.30;46.00
20866;DHT22;10593;48.398;10.698;2023-07-13T10:25:23;24.40;46.10
20866;DHT22;10593;48.398;10.698;2023-07-13T10:27:53;24.40;45.60
20866;DHT22;10593;48.398;10.698;2023-07-13T10:30:27;24.40;45.50
20866;DHT22;10593;48.398;10.698;2023-07-13T10:33:02;24.40;44.90
20866;DHT22;10593;48.398;10.698;2023-07-13T10:35:31;24.50;44.70
20866;DHT22;10593;48.398;10.698;2023-07-13T10:38:20;24.50;44.60
20866;DHT22;10593;48.398;10.698;2023-07-13T10:40:56;24.50;44.10
20866;DHT22;10593;48.398;10.698;2023-07-13T10:43:31;24.60;44.40
20866;DHT22;10593;48.398;10.698;2023-07-13T10:46:07;24.60;44.70
20866;DHT22;10593;48.398;10.698;2023-07-13T10:48:36;24.70;44.70
20866;DHT22;10593;48.398;10.698;2023-07-13T10:51:06;24.60;45.00
20866;DHT22;10593;48.398;10.698;2023-07-13T10:53:35;24.70;45.60
20866;DHT22;10593;48.398;10.698;2023-07-13T10:56:04;24.70;45.90
20866;DHT22;10593;48.398;10.698;2023-07-13T10:58:42;24.70;46.30
20866;DHT22;10593;48.398;10.698;2023-07-13T11:01:15;24.80;46.00
20866;DHT22;10593;48.398;10.698;2023-07-13T11:03:56;24.80;45.80
20866;DHT22;10593;48.398;10.698;2023-07-13T11:08:56;24.90;45.20
20866;DHT22;10593;48.398;10.698;2023-07-13T11:18:52;25.00;44.60
20866;DHT22;10593;48.398;10.698;2023-07-13T11:24:57;25.10;44.00
20866;DHT22;10593;48.398;10.698;2023-07-13T11:27:42;25.10;43.90
20866;DHT22;10593;48.398;10.698;2023-07-13T11:33:11;25.20;43.70
20866;DHT22;10593;48.398;10.698;2023-07-13T11:38:24;25.20;43.50
20866;DHT22;10593;48.398;10.698;2023-07-13T11:41:01;25.20;43.80
20866;DHT22;10593;48.398;10.698;2023-07-13T11:43:30;25.30;43.90
20866;DHT22;10593;48.398;10.698;2023-07-13T11:45:55;25.30;43.70
20866;DHT22;10593;48.398;10.698;2023-07-13T11:48:29;25.30;43.80
20866;DHT22;10593;48.398;10.698;2023-07-13T11:51:03;25.40;43.20
20866;DHT22;10593;48.398;10.698;2023-07-13T11:53:40;25.40;43.40
20866;DHT22;10593;48.398;10.698;2023-07-13T11:56:10;25.50;43.70
20866;DHT22;10593;48.398;10.698;2023-07-13T11:58:36;25.40;43.80
20866;DHT22;10593;48.398;10.698;2023-07-13T12:01:03;25.50;44.30
20866;DHT22;10593;48.398;10.698;2023-07-13T12:03:33;25.50;43.80
20866;DHT22;10593;48.398;10.698;2023-07-13T12:06:25;25.60;43.30
20866;DHT22;10593;48.398;10.698;2023-07-13T12:08:56;25.50;43.80
20866;DHT22;10593;48.398;10.698;2023-07-13T12:11:23;25.60;43.40
20866;DHT22;10593;48.398;10.698;2023-07-13T12:13:50;25.60;43.30
20866;DHT22;10593;48.398;10.698;2023-07-13T12:16:36;25.60;43.00
20866;DHT22;10593;48.398;10.698;2023-07-13T12:19:03;25.70;43.40
20866;DHT22;10593;48.398;10.698;2023-07-13T12:21:36;25.70;43.30
20866;DHT22;10593;48.398;10.698;2023-07-13T12:24:04;25.70;42.80
20866;DHT22;10593;48.398;10.698;2023-07-13T12:26:38;25.70;43.30
20866;DHT22;10593;48.398;10.698;2023-07-13T12:29:05;25.70;43.40
20866;DHT22;10593;48.398;10.698;2023-07-13T12:31:37;25.80;43.50
20866;DHT22;10593;48.398;10.698;2023-07-13T12:36:37;25.80;43.40
20866;DHT22;10593;48.398;10.698;2023-07-13T12:39:25;25.80;42.80
20866;DHT22;10593;48.398;10.698;2023-07-13T12:42:17;25.90;42.70
20866;DHT22;10593;48.398;10.698;2023-07-13T12:44:52;25.80;42.70
20866;DHT22;10593;48.398;10.698;2023-07-13T12:47:24;25.80;43.00
20866;DHT22;10593;48.398;10.698;2023-07-13T12:49:54;25.80;43.20
20866;DHT22;10593;48.398;10.698;2023-07-13T12:52:31;25.80;43.50
20866;DHT22;10593;48.398;10.698;2023-07-13T12:55:07;25.90;43.10
20866;DHT22;10593;48.398;10.698;2023-07-13T12:57:51;25.90;42.70
20866;DHT22;10593;48.398;10.698;2023-07-13T13:03:07;25.90;43.10
20866;DHT22;10593;48.398;10.698;2023-07-13T13:05:43;25.90;42.80
20866;DHT22;10593;48.398;10.698;2023-07-13T13:08:13;25.90;42.90
20866;DHT22;10593;48.398;10.698;2023-07-13T13:10:39;26.00;42.40
20866;DHT22;10593;48.398;10.698;2023-07-13T13:13:05;26.00;42.40
20866;DHT22;10593;48.398;10.698;2023-07-13T13:15:30;26.00;42.50
20866;DHT22;10593;48.398;10.698;2023-07-13T13:17:56;26.00;43.10
20866;DHT22;10593;48.398;10.698;2023-07-13T13:20:24;26.00;42.80
20866;DHT22;10593;48.398;10.698;2023-07-13T13:22:53;26.10;42.50
20866;DHT22;10593;48.398;10.698;2023-07-13T13:25:19;26.10;42.70
20866;DHT22;10593;48.398;10.698;2023-07-13T13:27:45;26.10;42.60
20866;DHT22;10593;48.398;10.698;2023-07-13T13:30:16;26.10;42.40
20866;DHT22;10593;48.398;10.698;2023-07-13T13:32:45;26.10;42.10
20866;DHT22;10593;48.398;10.698;2023-07-13T13:35:16;26.10;42.10
20866;DHT22;10593;48.398;10.698;2023-07-13T13:37:44;26.10;41.90
20866;DHT22;10593;48.398;10.698;2023-07-13T13:40:16;26.10;41.80
20866;DHT22;10593;48.398;10.698;2023-07-13T13:42:44;26.10;41.70
20866;DHT22;10593;48.398;10.698;2023-07-13T13:45:10;26.10;41.80
20866;DHT22;10593;48.398;10.698;2023-07-13T13:47:38;26.10;42.50
20866;DHT22;10593;48.398;10.698;2023-07-13T13:50:12;26.10;42.60
20866;DHT22;10593;48.398;10.698;2023-07-13T13:52:40;26.10;41.80
20866;DHT22;10593;48.398;10.698;2023-07-13T13:55:20;26.10;41.40
20866;DHT22;10593;48.398;10.698;2023-07-13T13:57:48;26.10;40.90
20866;DHT22;10593;48.398;10.698;2023-07-13T14:00:16;26.10;41.40
20866;DHT22;10593;48.398;10.698;2023-07-13T14:02:45;26.10;41.40
20866;DHT22;10593;48.398;10.698;2023-07-13T14:05:14;26.10;40.50
20866;DHT22;10593;48.398;10.698;2023-07-13T14:07:41;26.10;40.60
20866;DHT22;10593;48.398;10.698;2023-07-13T14:10:15;26.20;40.90
20866;DHT22;10593;48.398;10.698;2023-07-13T14:12:44;26.20;39.90
20866;DHT22;10593;48.398;10.698;2023-07-13T14:15:24;26.20;40.10
20866;DHT22;10593;48.398;10.698;2023-07-13T14:17:53;26.20;40.50
20866;DHT22;10593;48.398;10.698;2023-07-13T14:20:22;26.20;40.10
20866;DHT22;10593;48.398;10.698;2023-07-13T14:22:51;26.20;40.70
20866;DHT22;10593;48.398;10.698;2023-07-13T14:25:18;26.30;40.10
20866;DHT22;10593;48.398;10.698;2023-07-13T14:27:48;26.30;39.80
20866;DHT22;10593;48.398;10.698;2023-07-13T14:30:19;26.30;40.00
20866;DHT22;10593;48.398;10.698;2023-07-13T14:32:46;26.30;39.40
20866;DHT22;10593;48.398;10.698;2023-07-13T14:35:15;26.30;39.50
20866;DHT22;10593;48.398;10.698;2023-07-13T14:37:43;26.30;38.90
20866;DHT22;10593;48.398;10.698;2023-07-13T14:42:43;26.40;38.60
20866;DHT22;10593;48.398;10.698;2023-07-13T14:45:15;26.40;38.40
20866;DHT22;10593;48.398;10.698;2023-07-13T14:47:43;26.40;38.60
20866;DHT22;10593;48.398;10.698;2023-07-13T14:50:16;26.40;38.90
20866;DHT22;10593;48.398;10.698;2023-07-13T14:52:47;26.40;38.60
20866;DHT22;10593;48.398;10.698;2023-07-13T14:55:16;26.40;39.20
20866;DHT22;10593;48.398;10.698;2023-07-13T14:57:43;26.40;39.10
20866;DHT22;10593;48.398;10.698;2023-07-13T15:00:17;26.40;39.10
20866;DHT22;10593;48.398;10.698;2023-07-13T15:02:48;26.40;39.00
20866;DHT22;10593;48.398;10.698;2023-07-13T15:05:22;26.50;38.80
20866;DHT22;10593;48.398;10.698;2023-07-13T15:07:57;26.50;38.70
20866;DHT22;10593;48.398;10.698;2023-07-13T15:10:29;26.50;38.50
20866;DHT22;10593;48.398;10.698;2023-07-13T15:13:12;26.50;38.70
20866;DHT22;10593;48.398;10.698;2023-07-13T15:15:46;26.50;38.20
20866;DHT22;10593;48.398;10.698;2023-07-13T15:18:15;26.50;38.40
20866;DHT22;10593;48.398;10.698;2023-07-13T15:20:45;26.50;37.80
20866;DHT22;10593;48.398;10.698;2023-07-13T15:23:14;26.50;38.00
20866;DHT22;10593;48.398;10.698;2023-07-13T15:25:41;26.60;38.30
20866;DHT22;10593;48.398;10.698;2023-07-13T15:28:09;26.60;38.50
20866;DHT22;10593;48.398;10.698;2023-07-13T15:30:44;26.60;38.40
20866;DHT22;10593;48.398;10.698;2023-07-13T15:33:13;26.60;38.10
20866;DHT22;10593;48.398;10.698;2023-07-13T15:35:42;26.60;38.20
20866;DHT22;10593;48.398;10.698;2023-07-13T15:38:21;26.60;38.50
20866;DHT22;10593;48.398;10.698;2023-07-13T15:40:53;26.60;38.50
20866;DHT22;10593;48.398;10.698;2023-07-13T15:43:19;26.60;38.80
20866;DHT22;10593;48.398;10.698;2023-07-13T15:45:46;26.60;38.70
20866;DHT22;10593;48.398;10.698;2023-07-13T15:48:18;26.60;38.80
20866;DHT22;10593;48.398;10.698;2023-07-13T15:50:50;26.60;39.20
20866;DHT22;10593;48.398;10.698;2023-07-13T15:53:21;26.60;38.90
20866;DHT22;10593;48.398;10.698;2023-07-13T15:55:50;26.60;38.80
20866;DHT22;10593;48.398;10.698;2023-07-13T15:58:17;26.60;39.40
20866;DHT22;10593;48.398;10.698;2023-07-13T16:00:44;26.60;39.10